createdAt,value
2022-08-20T00:03:20.106Z,101491.19
2022-08-20T00:08:22.616Z,101481.22
2022-08-20T00:13:32.331Z,101481.94
2022-08-20T00:18:36.995Z,101473.63
2022-08-20T00:23:46.654Z,101478.47
2022-08-20T00:28:52.953Z,101489.00
2022-08-20T00:33:54.744Z,101492.66
2022-08-20T00:39:01.275Z,101482.84
2022-08-20T00:44:25.541Z,101472.44
2022-08-20T00:49:32.556Z,101469.34
2022-08-20T00:54:47.176Z,101466.50
2022-08-20T00:59:55.139Z,101465.56
2022-08-20T01:04:59.372Z,101463.06
2022-08-20T01:10:09.547Z,101468.38
2022-08-20T01:15:17.191Z,101478.25
2022-08-20T01:20:20.550Z,101472.09
2022-08-20T01:26:02.717Z,101473.34
2022-08-20T01:31:13.512Z,101467.34
2022-08-20T01:36:18.263Z,101478.88
2022-08-20T01:41:33.166Z,101489.53
2022-08-20T01:46:38.933Z,101491.63
2022-08-20T01:51:47.025Z,101491.25
2022-08-20T01:57:01.047Z,101490.66
2022-08-20T02:02:08.782Z,101495.47
2022-08-20T02:07:21.394Z,101499.84
2022-08-20T02:12:23.159Z,101497.00
2022-08-20T02:17:28.147Z,101497.81
2022-08-20T02:22:38.037Z,101500.31
2022-08-20T02:27:46.124Z,101499.31
2022-08-20T02:32:48.275Z,101501.44
2022-08-20T02:37:57.686Z,101502.94
2022-08-20T02:43:03.407Z,101506.34
2022-08-20T02:48:07.624Z,101515.38
2022-08-20T02:53:11.750Z,101520.44
2022-08-20T02:58:20.080Z,101510.63
2022-08-20T03:03:22.811Z,101510.50
2022-08-20T03:08:29.317Z,101518.25
2022-08-20T03:13:33.288Z,101513.75
2022-08-20T03:18:38.351Z,101509.81
2022-08-20T03:23:45.395Z,101504.81
2022-08-20T03:28:50.196Z,101507.38
2022-08-20T03:33:55.296Z,101513.69
2022-08-20T03:38:59.163Z,101524.16
2022-08-20T03:44:00.902Z,101527.34
2022-08-20T03:49:08.394Z,101527.78
2022-08-20T03:54:12.296Z,101527.38
2022-08-20T03:59:18.726Z,101530.31
2022-08-20T04:04:22.771Z,101542.22
2022-08-20T04:09:24.546Z,101533.03
2022-08-20T04:14:32.725Z,101536.81
2022-08-20T04:19:36.843Z,101525.78
2022-08-20T04:24:38.622Z,101537.03
2022-08-20T04:29:45.866Z,101541.03
2022-08-20T04:34:52.287Z,101545.44
2022-08-20T04:40:21.479Z,101549.28
2022-08-20T04:45:25.859Z,101552.66
2022-08-20T04:50:27.590Z,101563.09
2022-08-20T04:55:31.814Z,101570.59
2022-08-20T05:00:39.844Z,101573.53
2022-08-20T05:05:50.312Z,101584.81
2022-08-20T05:11:06.911Z,101580.06
2022-08-20T05:16:20.274Z,101581.94
2022-08-20T05:21:24.414Z,101592.16
2022-08-20T05:26:29.383Z,101593.81
2022-08-20T05:31:36.450Z,101601.91
2022-08-20T05:36:53.000Z,101597.28
2022-08-20T05:41:57.139Z,101600.16
2022-08-20T05:47:04.209Z,101606.63
2022-08-20T05:52:06.226Z,101627.69
2022-08-20T05:57:14.030Z,101622.06
2022-08-20T06:02:34.780Z,101619.75
2022-08-20T06:07:39.543Z,101626.56
2022-08-20T06:12:44.438Z,101623.41
2022-08-20T06:17:46.203Z,101620.63
2022-08-20T06:23:00.209Z,101612.59
2022-08-20T06:28:03.276Z,101618.03
2022-08-20T06:33:07.528Z,101621.03
2022-08-20T06:38:18.572Z,101621.97
2022-08-20T06:43:20.356Z,101614.28
2022-08-20T06:48:29.860Z,101615.06
2022-08-20T06:53:33.925Z,101625.44
2022-08-20T06:58:38.890Z,101621.47
2022-08-20T07:03:55.431Z,101612.41
2022-08-20T07:09:02.775Z,101604.25
2022-08-20T07:14:09.512Z,101619.03
2022-08-20T07:19:15.798Z,101618.31
2022-08-20T07:24:20.222Z,101628.53
2022-08-20T07:29:44.333Z,101638.44
2022-08-20T07:34:48.424Z,101641.41
2022-08-20T07:39:50.925Z,101635.41
2022-08-20T07:44:52.873Z,101642.50
2022-08-20T07:49:54.734Z,101649.13
2022-08-20T07:54:59.241Z,101649.97
2022-08-20T08:00:04.510Z,101657.91
2022-08-20T08:05:10.910Z,101672.47
2022-08-20T08:10:22.445Z,101664.81
2022-08-20T08:15:29.576Z,101669.66
2022-08-20T08:20:46.780Z,101681.84
2022-08-20T08:25:57.326Z,101677.84
2022-08-20T08:31:05.969Z,101691.22
2022-08-20T08:36:15.653Z,101686.97
2022-08-20T08:41:19.692Z,101691.00
2022-08-20T08:46:26.734Z,101686.97
2022-08-20T08:52:01.528Z,101690.16
2022-08-20T08:57:09.632Z,101702.59
2022-08-20T09:02:23.227Z,101709.53
2022-08-20T09:07:32.485Z,101713.13
2022-08-20T09:12:37.361Z,101721.09
2022-08-20T09:17:46.457Z,101715.22
2022-08-20T09:22:48.276Z,101717.69
2022-08-20T09:27:57.629Z,101723.34
2022-08-20T09:33:05.928Z,101728.22
2022-08-20T09:38:10.390Z,101724.03
2022-08-20T09:43:12.305Z,101730.06
2022-08-20T09:48:16.669Z,101717.19
2022-08-20T09:53:24.155Z,101721.56
2022-08-20T09:58:38.413Z,101713.97
2022-08-20T10:03:48.024Z,101734.00
2022-08-20T10:08:53.346Z,101734.41
2022-08-20T10:13:56.218Z,101731.69
2022-08-20T10:19:00.772Z,101736.69
2022-08-20T10:24:06.552Z,101738.81
2022-08-20T10:29:11.152Z,101746.28
2022-08-20T10:34:13.073Z,101751.50
2022-08-20T10:39:19.259Z,101754.00
2022-08-20T10:44:23.413Z,101753.28
2022-08-20T10:49:28.116Z,101756.03
2022-08-20T10:54:33.524Z,101747.94
2022-08-20T10:59:40.477Z,101752.91
2022-08-20T11:04:48.031Z,101747.47
2022-08-20T11:09:55.213Z,101754.63
2022-08-20T11:14:56.984Z,101750.34
2022-08-20T11:19:59.270Z,101752.56
2022-08-20T11:25:04.816Z,101757.28
2022-08-20T11:30:10.065Z,101741.88
2022-08-20T11:35:41.243Z,101750.59
2022-08-20T11:40:33.934Z,101760.78
2022-08-20T11:45:38.156Z,101756.00
2022-08-20T11:50:39.909Z,101755.97
2022-08-20T11:55:44.823Z,101757.97
2022-08-20T12:00:51.675Z,101761.59
2022-08-20T12:05:58.015Z,101761.53
2022-08-20T12:11:02.256Z,101761.59
2022-08-20T12:16:06.046Z,101753.09
2022-08-20T12:21:07.817Z,101762.44
2022-08-20T12:26:16.715Z,101758.31
2022-08-20T12:31:18.436Z,101757.72
2022-08-20T12:36:22.494Z,101765.72
2022-08-20T12:41:24.256Z,101769.78
2022-08-20T12:46:26.028Z,101772.75
2022-08-20T12:51:28.818Z,101771.06
2022-08-20T12:56:33.174Z,101776.50
2022-08-20T13:01:37.794Z,101774.50
2022-08-20T13:06:47.060Z,101773.50
2022-08-20T13:11:49.272Z,101781.34
2022-08-20T13:16:58.413Z,101772.78
2022-08-20T13:22:05.907Z,101771.47
2022-08-20T13:27:16.913Z,101772.22
2022-08-20T13:32:21.712Z,101764.28
2022-08-20T13:37:28.030Z,101765.16
2022-08-20T13:42:29.711Z,101763.81
2022-08-20T13:47:41.237Z,101760.78
2022-08-20T13:52:43.663Z,101756.25
2022-08-20T13:57:53.591Z,101749.97
2022-08-20T14:02:55.746Z,101763.47
2022-08-20T14:08:06.204Z,101762.59
2022-08-20T14:13:15.728Z,101768.75
2022-08-20T14:18:20.828Z,101759.34
2022-08-20T14:23:22.659Z,101765.31
2022-08-20T14:28:24.899Z,101761.44
2022-08-20T14:33:28.861Z,101760.66
2022-08-20T14:38:35.084Z,101765.75
2022-08-20T14:43:40.812Z,101760.03
2022-08-20T14:48:44.920Z,101753.50
2022-08-20T14:53:55.051Z,101749.19
2022-08-20T14:58:59.099Z,101749.28
2022-08-20T15:04:00.932Z,101745.34
2022-08-20T15:09:03.621Z,101749.25
2022-08-20T15:14:10.528Z,101747.69
2022-08-20T15:19:15.274Z,101750.84
2022-08-20T15:24:19.480Z,101756.09
2022-08-20T15:29:26.045Z,101761.06
2022-08-20T15:34:37.838Z,101756.41
2022-08-20T15:39:40.829Z,101749.22
2022-08-20T15:44:45.525Z,101752.38
2022-08-20T15:49:49.430Z,101749.19
2022-08-20T15:54:56.508Z,101752.25
2022-08-20T16:00:13.923Z,101742.84
2022-08-20T16:05:37.039Z,101751.41
2022-08-20T16:11:03.917Z,101743.38
2022-08-20T16:16:14.711Z,101745.91
2022-08-20T16:21:28.454Z,101746.41
2022-08-20T16:26:51.977Z,101746.06
2022-08-20T16:32:01.939Z,101743.25
2022-08-20T16:37:28.912Z,101751.16
2022-08-20T16:42:37.855Z,101746.72
2022-08-20T16:47:42.938Z,101755.81
2022-08-20T16:52:47.321Z,101751.88
2022-08-20T16:57:53.056Z,101749.53
2022-08-20T17:03:09.183Z,101762.38
2022-08-20T17:08:22.879Z,101763.28
2022-08-20T17:13:34.357Z,101767.19
2022-08-20T17:18:43.554Z,101771.59
2022-08-20T17:23:56.300Z,101772.63
2022-08-20T17:29:00.939Z,101770.22
2022-08-20T17:34:05.084Z,101770.22
2022-08-20T17:39:18.310Z,101758.50
2022-08-20T17:44:34.618Z,101765.78
2022-08-20T17:49:43.597Z,101775.78
2022-08-20T17:55:07.428Z,101778.00
2022-08-20T18:00:16.345Z,101778.22
2022-08-20T18:05:20.205Z,101786.97
2022-08-20T18:10:27.481Z,101781.91
2022-08-20T18:15:37.571Z,101783.97
2022-08-20T18:21:11.747Z,101777.06
2022-08-20T18:26:20.782Z,101783.28
2022-08-20T18:31:40.907Z,101781.44
2022-08-20T18:36:57.326Z,101781.16
2022-08-20T18:42:07.390Z,101791.50
2022-08-20T18:47:41.471Z,101778.09
2022-08-20T18:53:05.211Z,101791.22
2022-08-20T18:58:15.147Z,101788.31
2022-08-20T19:03:46.114Z,101790.72
2022-08-20T19:08:52.826Z,101795.53
2022-08-20T19:14:07.418Z,101800.16
2022-08-20T19:19:23.848Z,101800.19
2022-08-20T19:24:30.571Z,101786.34
2022-08-20T19:29:42.364Z,101792.53
2022-08-20T19:35:01.007Z,101790.16
2022-08-20T19:40:19.956Z,101789.03
2022-08-20T19:45:32.761Z,101795.88
2022-08-20T19:50:59.306Z,101806.19
2022-08-20T19:56:13.479Z,101807.47
2022-08-20T20:01:22.873Z,101794.59
2022-08-20T20:06:33.906Z,101789.66
2022-08-20T20:11:43.054Z,101789.09
2022-08-20T20:16:45.884Z,101788.53
2022-08-20T20:21:53.730Z,101778.09
2022-08-20T20:26:59.353Z,101777.31
2022-08-20T20:32:17.114Z,101786.91
2022-08-20T20:37:49.571Z,101780.25
2022-08-20T20:43:09.999Z,101785.34
2022-08-20T20:48:20.160Z,101783.69
2022-08-20T20:53:40.269Z,101777.44
2022-08-20T20:58:55.531Z,101774.00
2022-08-20T21:03:59.817Z,101765.44
2022-08-20T21:09:01.609Z,101770.09
2022-08-20T21:14:05.787Z,101766.13
2022-08-20T21:19:12.128Z,101762.63
2022-08-20T21:24:17.271Z,101765.38
2022-08-20T21:29:29.298Z,101759.53
2022-08-20T21:34:38.526Z,101765.81
2022-08-20T21:39:44.003Z,101758.75
2022-08-20T21:44:49.674Z,101757.91
2022-08-20T21:49:56.198Z,101755.47
2022-08-20T21:54:59.892Z,101748.81
2022-08-20T22:00:27.366Z,101746.75
2022-08-20T22:05:31.591Z,101757.38
2022-08-20T22:10:35.987Z,101751.34
2022-08-20T22:15:39.596Z,101743.41
2022-08-20T22:20:41.453Z,101748.19
2022-08-20T22:25:45.381Z,101743.00
2022-08-20T22:30:49.448Z,101738.22
2022-08-20T22:35:53.518Z,101735.72
2022-08-20T22:40:57.528Z,101737.59
2022-08-20T22:46:04.304Z,101741.34
2022-08-20T22:51:06.122Z,101746.13
2022-08-20T22:56:19.686Z,101745.69
2022-08-20T23:01:24.270Z,101748.59
2022-08-20T23:06:29.498Z,101737.78
2022-08-20T23:11:31.260Z,101736.06
2022-08-20T23:16:39.331Z,101736.25
2022-08-20T23:21:41.072Z,101738.56
2022-08-20T23:26:53.149Z,101735.81
2022-08-20T23:31:57.655Z,101732.22
2022-08-20T23:37:00.554Z,101732.44
2022-08-20T23:42:05.426Z,101731.53
2022-08-20T23:47:24.791Z,101729.88
2022-08-20T23:52:28.856Z,101723.41
2022-08-20T23:57:35.399Z,101715.91
